Terminal Aerodrome Forecast
Issued by NWS Wilmington, OH

Current Version | Previous Version | Text Only | Print | Product List | Glossary Off
Versions: 1 2 3 4 5 6 7 8 9 10 11 12 13 14 15 16 17 18 19 20 21 22

582
FTUS41 KILN 091132
TAFCMH
TAF
KCMH 091132Z 0912/1012 26012KT P6SM -SN BKN021 OVC060
     FM100100 26005KT P6SM SCT025=

USA.gov is the U.S. government's official web portal to all federal, state and local government web resources and services.